Terminal Aerodrome Forecast
Issued by NWS

Home | Current Version | Previous Version | Text Only | Print | Product List | Glossary On
Versions: 1 2 3 4 5 6 7 8 9 10 11 12 13 14
196
FTUS45 KABQ 282343
TAFTCC
TAF
KTCC 282343Z 2900/2924 04010KT P6SM VCTS SCT050CB BKN090
      TEMPO 2900/2901 VRB15G23KT 5SM TSRA BKN035CB OVC050
     FM290200 04011KT P6SM VCSH BKN035
     FM290600 04015KT 6SM -RA BR OVC019
     FM290800 02015G25KT 2SM RA BR OVC008
     FM291200 03019G28KT 2SM RASN BR OVC008
     FM292000 02015G25KT P6SM VCSH OVC025=

USA.gov is the U.S. government's official web portal to all federal, state and local government web resources and services.